createdAt,value
2016-03-26T00:00:05.561Z,0
2016-03-26T00:01:05.548Z,0
2016-03-26T00:02:05.534Z,0
2016-03-26T00:03:05.506Z,0
2016-03-26T00:04:05.508Z,0
2016-03-26T00:05:05.496Z,0
2016-03-26T00:06:05.467Z,0
2016-03-26T00:07:05.517Z,0
2016-03-26T00:08:05.442Z,0
2016-03-26T00:09:05.428Z,0
2016-03-26T00:10:05.431Z,0
2016-03-26T00:11:05.403Z,0
2016-03-26T00:12:05.374Z,0
2016-03-26T00:13:05.361Z,0
2016-03-26T00:14:05.333Z,0
2016-03-26T00:15:05.319Z,0
2016-03-26T00:16:05.322Z,0
2016-03-26T00:17:05.294Z,0
2016-03-26T00:18:05.280Z,0
2016-03-26T00:19:05.252Z,0
2016-03-26T00:20:05.240Z,0
2016-03-26T00:21:05.210Z,0
2016-03-26T00:22:05.198Z,0
2016-03-26T00:23:05.215Z,0
2016-03-26T00:24:05.187Z,0
2016-03-26T00:25:05.159Z,0
2016-03-26T00:26:05.146Z,0
2016-03-26T00:27:05.118Z,0
2016-03-26T00:28:05.104Z,0
2016-03-26T00:29:05.092Z,0
2016-03-26T00:30:05.078Z,0
2016-03-26T00:31:05.065Z,0
2016-03-26T00:32:05.037Z,0
2016-03-26T00:33:05.008Z,0
2016-03-26T00:34:05.011Z,0
2016-03-26T00:35:04.998Z,0
2016-03-26T00:36:04.986Z,0
2016-03-26T00:37:04.956Z,0
2016-03-26T00:38:04.945Z,0
2016-03-26T00:39:04.931Z,0
2016-03-26T00:40:04.902Z,0
2016-03-26T00:41:04.889Z,0
2016-03-26T00:42:04.865Z,0
2016-03-26T00:43:04.883Z,0
2016-03-26T00:44:04.839Z,0
2016-03-26T00:45:04.654Z,0
2016-03-26T00:46:04.798Z,0
2016-03-26T00:47:04.769Z,0
2016-03-26T00:48:04.772Z,0
2016-03-26T00:49:04.743Z,0
2016-03-26T00:50:04.745Z,0
2016-03-26T00:51:04.702Z,0
2016-03-26T00:52:04.688Z,0
2016-03-26T00:53:04.676Z,0
2016-03-26T00:54:04.678Z,0
2016-03-26T00:55:04.634Z,0
2016-03-26T00:56:04.636Z,0
2016-03-26T00:57:04.796Z,0
2016-03-26T00:58:04.596Z,0
2016-03-26T00:59:04.567Z,0
2016-03-26T01:00:04.554Z,0
2016-03-26T01:01:04.541Z,0
2016-03-26T01:02:04.528Z,0
2016-03-26T01:03:04.500Z,0
2016-03-26T01:04:04.502Z,0
2016-03-26T01:05:04.504Z,0
2016-03-26T01:06:04.460Z,0
2016-03-26T01:07:04.449Z,0
2016-03-26T01:08:04.435Z,0
2016-03-26T01:09:04.407Z,0
2016-03-26T01:10:04.379Z,0
2016-03-26T01:11:04.381Z,0
2016-03-26T01:12:04.306Z,0
2016-03-26T01:13:04.341Z,0
2016-03-26T01:14:04.155Z,0
2016-03-26T01:15:04.299Z,0
2016-03-26T01:16:04.302Z,0
2016-03-26T01:17:04.273Z,0
2016-03-26T01:18:04.259Z,0
2016-03-26T01:19:04.231Z,0
2016-03-26T01:20:04.218Z,0
2016-03-26T01:21:04.205Z,0
2016-03-26T01:22:04.192Z,0
2016-03-26T01:23:04.164Z,0
2016-03-26T01:24:04.151Z,0
2016-03-26T01:25:04.122Z,0
2016-03-26T01:26:04.109Z,0
2016-03-26T01:27:04.737Z,0
2016-03-26T01:28:04.067Z,0
2016-03-26T01:29:04.055Z,0
2016-03-26T01:30:04.042Z,0
2016-03-26T01:31:04.014Z,0
2016-03-26T01:32:04.001Z,0
2016-03-26T01:33:03.971Z,0
2016-03-26T01:34:03.990Z,0
2016-03-26T01:35:03.946Z,0
2016-03-26T01:36:03.949Z,0
2016-03-26T01:37:03.919Z,0
2016-03-26T01:38:03.891Z,0
2016-03-26T01:39:03.878Z,0
2016-03-26T01:40:03.865Z,0
2016-03-26T01:41:03.853Z,0
2016-03-26T01:42:03.918Z,0
2016-03-26T01:43:03.796Z,0
2016-03-26T01:44:03.627Z,0
2016-03-26T01:45:03.786Z,0
2016-03-26T01:46:03.741Z,0
2016-03-26T01:47:03.743Z,0
2016-03-26T01:48:03.731Z,0
2016-03-26T01:49:03.687Z,0
2016-03-26T01:50:03.705Z,0
2016-03-26T01:51:03.676Z,0
2016-03-26T01:52:03.648Z,0
2016-03-26T01:53:03.635Z,0
2016-03-26T01:54:03.622Z,0
2016-03-26T01:55:03.593Z,0
2016-03-26T01:56:03.581Z,0
2016-03-26T01:57:03.442Z,0
2016-03-26T01:58:03.554Z,0
2016-03-26T01:59:03.525Z,0
2016-03-26T02:00:03.513Z,0
2016-03-26T02:01:03.501Z,0
2016-03-26T02:02:03.472Z,0
2016-03-26T02:03:02.709Z,0
2016-03-26T02:04:03.790Z,0
2016-03-26T02:05:03.417Z,0
2016-03-26T02:06:03.405Z,0
2016-03-26T02:07:03.422Z,0
2016-03-26T02:08:03.394Z,0
2016-03-26T02:09:03.366Z,0
2016-03-26T02:10:03.368Z,0
2016-03-26T02:11:03.308Z,0
2016-03-26T02:12:03.342Z,0
2016-03-26T02:13:03.283Z,0
2016-03-26T02:14:03.269Z,0
2016-03-26T02:15:03.241Z,0
2016-03-26T02:16:03.228Z,0
2016-03-26T02:17:03.216Z,0
2016-03-26T02:18:03.187Z,0
2016-03-26T02:19:03.158Z,0
2016-03-26T02:20:03.160Z,0
2016-03-26T02:21:03.132Z,0
2016-03-26T02:22:03.119Z,0
2016-03-26T02:23:03.090Z,0
2016-03-26T02:24:03.093Z,0
2016-03-26T02:25:03.062Z,0
2016-03-26T02:26:03.048Z,0
2016-03-26T02:27:03.020Z,0
2016-03-26T02:28:03.007Z,0
2016-03-26T02:29:02.979Z,0
2016-03-26T02:30:02.967Z,0
2016-03-26T02:31:02.954Z,0
2016-03-26T02:32:02.925Z,0
2016-03-26T02:33:02.912Z,0
2016-03-26T02:34:02.883Z,0
2016-03-26T02:35:02.901Z,0
2016-03-26T02:36:02.857Z,0
2016-03-26T02:37:02.844Z,0
2016-03-26T02:38:02.816Z,0
2016-03-26T02:39:02.880Z,0
2016-03-26T02:40:02.790Z,0
2016-03-26T02:41:02.777Z,0
2016-03-26T02:42:02.749Z,0
2016-03-26T02:43:02.735Z,0
2016-03-26T02:44:02.707Z,0
2016-03-26T02:45:02.694Z,0
2016-03-26T02:46:02.681Z,0
2016-03-26T02:47:02.652Z,0
2016-03-26T02:48:02.640Z,0
2016-03-26T02:49:02.627Z,0
2016-03-26T02:50:02.613Z,0
2016-03-26T02:51:02.601Z,0
2016-03-26T02:52:02.571Z,0
2016-03-26T02:53:02.560Z,0
2016-03-26T02:54:02.546Z,0
2016-03-26T02:55:02.502Z,0
2016-03-26T02:56:02.505Z,0
2016-03-26T02:57:02.476Z,0
2016-03-26T02:58:02.463Z,0
2016-03-26T02:59:02.451Z,0
2016-03-26T03:00:02.422Z,0
2016-03-26T03:01:02.409Z,0
2016-03-26T03:02:02.381Z,0
2016-03-26T03:03:02.368Z,0
2016-03-26T03:04:02.354Z,0
2016-03-26T03:05:02.342Z,0
2016-03-26T03:06:02.314Z,0
2016-03-26T03:07:02.144Z,0
2016-03-26T03:08:02.272Z,0
2016-03-26T03:09:02.259Z,0
2016-03-26T03:10:02.245Z,0
2016-03-26T03:11:02.233Z,0
2016-03-26T03:12:02.204Z,0
2016-03-26T03:13:02.208Z,0
2016-03-26T03:14:02.194Z,0
2016-03-26T03:15:02.180Z,0
2016-03-26T03:16:02.136Z,0
2016-03-26T03:17:02.155Z,0
2016-03-26T03:18:02.111Z,0
2016-03-26T03:19:02.066Z,0
2016-03-26T03:20:02.054Z,0
2016-03-26T03:21:02.041Z,0
2016-03-26T03:22:02.027Z,0
2016-03-26T03:23:01.999Z,0
2016-03-26T03:24:02.002Z,0
2016-03-26T03:25:01.957Z,0
2016-03-26T03:26:01.945Z,0
2016-03-26T03:27:01.932Z,0
2016-03-26T03:28:01.903Z,0
2016-03-26T03:29:01.890Z,0
2016-03-26T03:30:01.878Z,0
2016-03-26T03:31:01.865Z,0
2016-03-26T03:32:01.836Z,0
2016-03-26T03:33:01.823Z,0
2016-03-26T03:34:01.794Z,0
2016-03-26T03:35:01.767Z,0
2016-03-26T03:36:01.754Z,0
2016-03-26T03:37:01.740Z,0
2016-03-26T03:38:01.728Z,0
2016-03-26T03:39:01.699Z,0
2016-03-26T03:40:01.686Z,0
2016-03-26T03:41:01.673Z,0
2016-03-26T03:42:01.645Z,0
2016-03-26T03:43:01.632Z,0
2016-03-26T03:44:01.619Z,0
2016-03-26T03:45:01.606Z,0
2016-03-26T03:46:01.577Z,0
2016-03-26T03:47:01.549Z,0
2016-03-26T03:48:01.535Z,0
2016-03-26T03:49:01.538Z,0
2016-03-26T03:50:01.525Z,0
2016-03-26T03:51:01.513Z,0
2016-03-26T03:52:01.452Z,0
2016-03-26T03:53:01.455Z,0
2016-03-26T03:54:01.458Z,0
2016-03-26T03:55:01.413Z,0
2016-03-26T03:56:01.401Z,0
2016-03-26T03:57:01.357Z,0
2016-03-26T03:58:01.359Z,0
2016-03-26T03:59:01.332Z,0
2016-03-26T04:00:01.318Z,0
2016-03-26T04:01:01.304Z,0
2016-03-26T04:02:01.277Z,0
2016-03-26T04:03:01.248Z,0
2016-03-26T04:04:01.375Z,0
2016-03-26T04:05:01.206Z,0
2016-03-26T04:06:01.209Z,0
2016-03-26T04:07:01.180Z,0
2016-03-26T04:08:01.184Z,0
2016-03-26T04:09:01.154Z,0
2016-03-26T04:10:01.141Z,0
2016-03-26T04:11:01.098Z,0
2016-03-26T04:12:01.084Z,0
2016-03-26T04:13:01.055Z,0
2016-03-26T04:14:01.043Z,0
2016-03-26T04:15:01.030Z,0
2016-03-26T04:16:01.002Z,0
2016-03-26T04:17:01.005Z,0
2016-03-26T04:18:00.975Z,0
2016-03-26T04:19:00.963Z,0
2016-03-26T04:20:00.981Z,0
2016-03-26T04:21:00.921Z,0
2016-03-26T04:22:00.924Z,0
2016-03-26T04:23:00.879Z,0
2016-03-26T04:24:00.899Z,0
2016-03-26T04:25:00.838Z,0
2016-03-26T04:26:00.857Z,0
2016-03-26T04:27:00.812Z,0
2016-03-26T04:28:00.784Z,0
2016-03-26T04:29:00.771Z,0
2016-03-26T04:30:00.742Z,0
2016-03-26T04:31:00.729Z,0
2016-03-26T04:32:00.576Z,0
2016-03-26T04:33:00.688Z,0
2016-03-26T04:34:00.690Z,0
2016-03-26T04:35:00.490Z,0
2016-03-26T04:36:00.649Z,0
2016-03-26T04:37:00.620Z,0
2016-03-26T04:38:00.607Z,0
2016-03-26T04:39:00.579Z,0
2016-03-26T04:40:00.566Z,0
2016-03-26T04:41:00.538Z,0
2016-03-26T04:42:00.525Z,0
2016-03-26T04:43:00.511Z,0
2016-03-26T04:44:00.483Z,0
2016-03-26T04:45:00.486Z,0
2016-03-26T04:46:00.445Z,0
2016-03-26T04:47:00.449Z,0
2016-03-26T04:48:00.404Z,4
2016-03-26T04:49:00.406Z,4
2016-03-26T04:50:00.426Z,0
2016-03-26T04:51:00.381Z,4
2016-03-26T04:52:00.351Z,4
2016-03-26T04:53:00.309Z,4
2016-03-26T04:54:00.311Z,4
2016-03-26T04:55:00.267Z,8
2016-03-26T04:56:00.269Z,8
2016-03-26T04:57:00.240Z,8
2016-03-26T04:58:00.227Z,12
2016-03-26T04:59:00.200Z,12
2016-03-26T05:00:00.202Z,20
2016-03-26T05:01:00.157Z,20
2016-03-26T05:02:00.161Z,24
2016-03-26T05:03:00.116Z,28
2016-03-26T05:04:00.134Z,36
2016-03-26T05:05:00.075Z,44
2016-03-26T05:06:00.077Z,52
2016-03-26T05:07:00.049Z,64
2016-03-26T05:08:00.020Z,72
2016-03-26T05:09:00.022Z,84
2016-03-26T05:09:59.979Z,96
2016-03-26T05:10:59.982Z,112
2016-03-26T05:11:59.953Z,132
2016-03-26T05:13:00.080Z,148
2016-03-26T05:13:59.927Z,172
2016-03-26T05:14:59.899Z,196
2016-03-26T05:15:59.885Z,224
2016-03-26T05:16:59.856Z,256
2016-03-26T05:17:59.875Z,284
2016-03-26T05:18:59.831Z,316
2016-03-26T05:19:59.802Z,356
2016-03-26T05:20:59.790Z,396
2016-03-26T05:21:59.761Z,436
2016-03-26T05:22:59.748Z,480
2016-03-26T05:23:59.720Z,524
2016-03-26T05:24:59.706Z,576
2016-03-26T05:25:59.693Z,628
2016-03-26T05:26:59.681Z,680
2016-03-26T05:27:59.730Z,740
2016-03-26T05:28:59.640Z,796
2016-03-26T05:29:59.611Z,856
2016-03-26T05:30:59.597Z,920
2016-03-26T05:31:59.570Z,988
2016-03-26T05:32:59.572Z,1052
2016-03-26T05:33:59.574Z,1128
2016-03-26T05:34:59.514Z,1204
2016-03-26T05:35:59.517Z,1284
2016-03-26T05:36:59.472Z,1368
2016-03-26T05:37:59.461Z,1456
2016-03-26T05:38:59.447Z,1540
2016-03-26T05:39:59.419Z,1628
2016-03-26T05:40:59.406Z,1720
2016-03-26T05:41:59.408Z,1808
2016-03-26T05:42:59.363Z,1904
2016-03-26T05:43:59.336Z,2000
2016-03-26T05:44:59.323Z,2112
2016-03-26T05:45:59.310Z,2224
2016-03-26T05:46:59.141Z,2320
2016-03-26T05:47:59.268Z,2396
2016-03-26T05:48:59.255Z,2508
2016-03-26T05:49:59.243Z,2652
2016-03-26T05:50:59.214Z,2788
2016-03-26T05:51:59.201Z,2872
2016-03-26T05:52:59.308Z,2984
2016-03-26T05:53:59.257Z,3108
2016-03-26T05:54:59.184Z,3228
2016-03-26T05:55:59.140Z,3344
2016-03-26T05:57:00.477Z,3440
2016-03-26T05:57:59.074Z,3548
2016-03-26T05:58:59.061Z,3672
2016-03-26T05:59:59.047Z,3840
2016-03-26T06:00:59.019Z,4076
2016-03-26T06:01:59.006Z,4352
2016-03-26T06:02:58.994Z,4564
2016-03-26T06:03:58.980Z,4592
2016-03-26T06:04:58.952Z,4740
2016-03-26T06:05:58.934Z,4736
2016-03-26T06:06:58.912Z,4852
2016-03-26T06:07:58.878Z,4988
2016-03-26T06:08:58.842Z,6080
2016-03-26T06:09:58.836Z,5876
2016-03-26T06:10:58.803Z,5912
2016-03-26T06:11:58.787Z,6000
2016-03-26T06:12:58.786Z,6392
2016-03-26T06:13:58.755Z,6556
2016-03-26T06:14:58.723Z,6880
2016-03-26T06:15:58.724Z,7032
2016-03-26T06:16:58.709Z,7296
2016-03-26T06:17:58.727Z,7836
2016-03-26T06:18:58.682Z,7860
2016-03-26T06:19:58.668Z,7776
2016-03-26T06:20:58.654Z,7736
2016-03-26T06:21:58.656Z,7224
2016-03-26T06:22:58.627Z,6648
2016-03-26T06:23:58.598Z,7764
2016-03-26T06:24:58.584Z,9092
2016-03-26T06:25:58.572Z,8968
2016-03-26T06:26:58.559Z,9712
2016-03-26T06:27:58.562Z,9504
2016-03-26T06:28:58.534Z,8108
2016-03-26T06:29:58.536Z,7604
2016-03-26T06:30:58.522Z,9916
2016-03-26T06:31:58.511Z,11720
2016-03-26T06:32:58.513Z,12192
2016-03-26T06:33:58.468Z,12392
2016-03-26T06:34:58.455Z,12756
2016-03-26T06:35:58.474Z,12832
2016-03-26T06:36:58.461Z,12584
2016-03-26T06:37:58.432Z,10596
2016-03-26T06:38:58.435Z,8600
2016-03-26T06:39:58.421Z,10724
2016-03-26T06:40:58.409Z,13616
2016-03-26T06:41:58.396Z,14396
2016-03-26T06:42:58.227Z,14796
2016-03-26T06:43:58.370Z,15212
2016-03-26T06:44:58.374Z,15900
2016-03-26T06:45:58.360Z,16372
2016-03-26T06:46:58.346Z,16348
2016-03-26T06:47:58.335Z,16284
2016-03-26T06:48:58.337Z,16504
2016-03-26T06:49:58.323Z,17232
2016-03-26T06:50:58.312Z,18288
2016-03-26T06:51:58.314Z,18724
2016-03-26T06:52:58.301Z,18760
2016-03-26T06:53:58.287Z,18668
2016-03-26T06:54:58.290Z,18832
2016-03-26T06:55:58.278Z,19552
2016-03-26T06:56:58.280Z,20384
2016-03-26T06:57:58.267Z,20864
2016-03-26T06:58:58.269Z,20992
2016-03-26T06:59:58.273Z,21024
2016-03-26T07:00:58.259Z,21920
2016-03-26T07:01:58.247Z,22784
2016-03-26T07:02:58.250Z,23264
2016-03-26T07:03:58.236Z,22592
2016-03-26T07:04:58.239Z,21696
2016-03-26T07:05:58.227Z,22112
2016-03-26T07:06:58.213Z,23136
2016-03-26T07:07:58.216Z,25216
2016-03-26T07:08:58.219Z,25568
2016-03-26T07:09:58.206Z,24960
2016-03-26T07:10:58.224Z,24672
2016-03-26T07:11:58.210Z,24992
2016-03-26T07:12:58.214Z,25888
2016-03-26T07:13:58.201Z,26944
2016-03-26T07:14:58.187Z,27808
2016-03-26T07:15:58.207Z,27392
2016-03-26T07:16:58.193Z,26432
2016-03-26T07:17:58.180Z,26112
2016-03-26T07:18:58.183Z,26752
2016-03-26T07:19:58.170Z,27424
2016-03-26T07:20:58.173Z,27584
2016-03-26T07:21:58.191Z,27296
2016-03-26T07:22:58.178Z,26624
2016-03-26T07:23:58.165Z,26176
2016-03-26T07:24:58.012Z,26848
2016-03-26T07:25:58.156Z,28608
2016-03-26T07:26:58.064Z,30368
2016-03-26T07:27:58.160Z,30848
2016-03-26T07:28:58.164Z,30176
2016-03-26T07:29:58.166Z,29216
2016-03-26T07:30:58.152Z,28704
2016-03-26T07:31:58.156Z,28000
2016-03-26T07:32:58.158Z,28128
2016-03-26T07:33:58.161Z,28352
2016-03-26T07:34:58.164Z,28928
2016-03-26T07:35:58.150Z,28416
2016-03-26T07:36:58.153Z,28864
2016-03-26T07:37:58.156Z,30208
2016-03-26T07:38:58.143Z,29856
2016-03-26T07:39:58.130Z,29280
2016-03-26T07:40:58.149Z,29824
2016-03-26T07:41:58.136Z,29312
2016-03-26T07:42:58.138Z,28736
2016-03-26T07:43:58.125Z,29120
2016-03-26T07:44:58.128Z,30368
2016-03-26T07:45:58.130Z,32320
2016-03-26T07:46:58.132Z,33312
2016-03-26T07:47:58.136Z,34432
2016-03-26T07:48:58.138Z,34464
2016-03-26T07:49:58.126Z,34560
2016-03-26T07:50:58.113Z,34176
2016-03-26T07:51:58.115Z,34240
2016-03-26T07:52:58.118Z,35040
2016-03-26T07:53:58.121Z,35744
2016-03-26T07:54:58.108Z,36256
2016-03-26T07:55:58.111Z,36800
2016-03-26T07:56:58.114Z,37568
2016-03-26T07:57:58.117Z,39552
2016-03-26T07:58:58.104Z,40256
2016-03-26T07:59:58.122Z,40192
2016-03-26T08:00:58.093Z,40704
2016-03-26T08:01:58.095Z,40992
2016-03-26T08:02:58.097Z,41632
2016-03-26T08:03:58.101Z,41664
2016-03-26T08:04:58.103Z,40800
2016-03-26T08:05:58.091Z,40352
2016-03-26T08:06:58.094Z,39584
2016-03-26T08:07:58.596Z,38880
2016-03-26T08:08:58.083Z,39168
2016-03-26T08:09:57.945Z,40032
2016-03-26T08:10:58.088Z,37408
2016-03-26T08:11:58.091Z,38752
2016-03-26T08:12:58.078Z,38080
2016-03-26T08:13:58.080Z,38848
2016-03-26T08:14:58.068Z,40704
2016-03-26T08:15:58.071Z,41376
2016-03-26T08:16:58.089Z,41760
2016-03-26T08:17:58.076Z,43200
2016-03-26T08:18:58.078Z,44480
2016-03-26T08:19:58.066Z,45344
2016-03-26T08:20:58.068Z,45728
2016-03-26T08:21:58.071Z,46336
2016-03-26T08:22:58.059Z,46848
2016-03-26T08:23:58.061Z,46784
2016-03-26T08:24:58.064Z,47776
2016-03-26T08:25:58.067Z,47552
2016-03-26T08:26:58.054Z,46528
2016-03-26T08:27:58.056Z,45472
2016-03-26T08:28:58.059Z,46048
2016-03-26T08:29:58.046Z,47712
2016-03-26T08:30:58.048Z,48672
2016-03-26T08:31:58.051Z,49792
2016-03-26T08:32:58.054Z,50496
2016-03-26T08:33:58.056Z,51072
2016-03-26T08:34:58.044Z,51840
2016-03-26T08:35:58.046Z,53792
2016-03-26T08:36:58.050Z,57152
2016-03-26T08:37:58.052Z,59616
2016-03-26T08:38:58.038Z,61216
2016-03-26T08:39:58.042Z,60576
2016-03-26T08:40:58.032Z,58912
2016-03-26T08:41:58.035Z,57888
2016-03-26T08:42:58.038Z,58528
2016-03-26T08:43:58.040Z,59648
2016-03-26T08:44:58.028Z,60992
2016-03-26T08:45:58.030Z,62176
2016-03-26T08:46:58.033Z,62560
2016-03-26T08:47:58.020Z,62624
2016-03-26T08:48:58.022Z,62112
2016-03-26T08:49:58.026Z,60864
2016-03-26T08:50:58.028Z,58656
2016-03-26T08:51:58.015Z,58336
2016-03-26T08:52:58.017Z,57024
2016-03-26T08:53:58.036Z,57856
2016-03-26T08:54:58.039Z,58208
2016-03-26T08:55:58.025Z,59424
2016-03-26T08:56:58.029Z,59712
2016-03-26T08:57:58.031Z,60448
2016-03-26T08:58:58.019Z,62592
2016-03-26T08:59:58.022Z,63488
2016-03-26T09:00:58.024Z,64448
2016-03-26T09:01:58.010Z,65088
2016-03-26T09:02:58.013Z,64896
2016-03-26T09:03:58.016Z,64000
2016-03-26T09:04:58.019Z,62720
2016-03-26T09:05:58.021Z,61248
2016-03-26T09:06:57.868Z,59744
2016-03-26T09:07:58.011Z,58464
2016-03-26T09:08:57.999Z,57920
2016-03-26T09:09:58.001Z,59136
2016-03-26T09:10:58.004Z,60128
2016-03-26T09:11:58.007Z,61600
2016-03-26T09:12:58.009Z,63488
2016-03-26T09:13:58.012Z,63648
2016-03-26T09:14:58.014Z,62688
2016-03-26T09:15:58.001Z,62496
2016-03-26T09:16:58.004Z,62464
2016-03-26T09:17:58.007Z,61600
2016-03-26T09:18:58.009Z,60768
2016-03-26T09:19:58.012Z,60704
2016-03-26T09:20:58.015Z,60800
2016-03-26T09:21:58.017Z,60384
2016-03-26T09:22:58.005Z,60064
2016-03-26T09:23:58.008Z,59552
2016-03-26T09:24:58.010Z,59232
2016-03-26T09:25:58.013Z,59584
2016-03-26T09:26:58.016Z,60768
2016-03-26T09:27:58.018Z,61408
2016-03-26T09:28:58.005Z,62368
2016-03-26T09:29:58.024Z,62080
2016-03-26T09:30:58.010Z,61312
2016-03-26T09:31:58.013Z,60992
2016-03-26T09:32:58.016Z,61600
2016-03-26T09:33:58.019Z,63232
2016-03-26T09:34:58.021Z,63328
2016-03-26T09:35:58.008Z,63520
2016-03-26T09:36:58.011Z,64480
2016-03-26T09:37:57.998Z,64320
2016-03-26T09:38:58.001Z,63712
2016-03-26T09:39:57.988Z,63424
2016-03-26T09:40:58.006Z,63200
2016-03-26T09:41:58.009Z,63968
2016-03-26T09:42:58.012Z,64448
2016-03-26T09:43:57.998Z,64576
2016-03-26T09:44:58.001Z,64480
2016-03-26T09:45:58.003Z,65760
2016-03-26T09:46:57.991Z,65888
2016-03-26T09:47:57.994Z,64480
2016-03-26T09:48:58.011Z,63392
2016-03-26T09:49:57.999Z,62784
2016-03-26T09:50:58.002Z,62944
2016-03-26T09:51:58.005Z,65408
2016-03-26T09:52:57.991Z,67200
2016-03-26T09:53:57.994Z,67776
2016-03-26T09:54:57.981Z,67808
2016-03-26T09:55:57.984Z,66880
2016-03-26T09:56:57.971Z,65984
2016-03-26T09:57:57.974Z,64864
2016-03-26T09:58:57.977Z,65120
2016-03-26T09:59:57.979Z,66304
2016-03-26T10:00:57.982Z,68384
2016-03-26T10:01:57.985Z,69824
2016-03-26T10:02:57.987Z,69728
2016-03-26T10:03:57.991Z,67744
2016-03-26T10:04:57.993Z,65824
2016-03-26T10:05:57.979Z,65952
2016-03-26T10:06:57.982Z,68192
2016-03-26T10:07:57.985Z,72608
2016-03-26T10:08:57.972Z,75488
2016-03-26T10:09:57.974Z,77248
2016-03-26T10:10:57.977Z,78208
2016-03-26T10:11:57.979Z,77728
2016-03-26T10:12:57.983Z,81152
2016-03-26T10:13:58.032Z,82560
2016-03-26T10:14:57.973Z,84768
2016-03-26T10:15:57.976Z,83808
2016-03-26T10:16:57.979Z,81760
2016-03-26T10:17:57.965Z,80960
2016-03-26T10:18:57.983Z,80256
2016-03-26T10:19:57.986Z,81408
2016-03-26T10:20:58.004Z,81952
2016-03-26T10:21:57.976Z,80960
2016-03-26T10:22:57.978Z,80224
2016-03-26T10:23:57.981Z,79872
2016-03-26T10:24:57.984Z,79776
2016-03-26T10:25:57.971Z,78080
2016-03-26T10:26:57.974Z,77952
2016-03-26T10:27:57.977Z,77408
2016-03-26T10:28:57.995Z,80384
2016-03-26T10:29:57.950Z,85024
2016-03-26T10:30:57.969Z,89088
2016-03-26T10:31:57.940Z,91328
2016-03-26T10:32:57.958Z,91872
2016-03-26T10:33:57.946Z,91488
2016-03-26T10:34:57.964Z,91712
2016-03-26T10:35:57.951Z,93280
2016-03-26T10:36:57.954Z,96576
2016-03-26T10:37:57.832Z,98112
2016-03-26T10:38:57.927Z,99072
2016-03-26T10:39:57.962Z,97920
2016-03-26T10:40:57.949Z,98624
2016-03-26T10:41:57.957Z,99584
2016-03-26T10:42:57.943Z,98944
2016-03-26T10:43:57.962Z,99136
2016-03-26T10:44:57.933Z,97376
2016-03-26T10:45:57.951Z,94176
2016-03-26T10:46:57.939Z,88608
2016-03-26T10:47:57.957Z,82752
2016-03-26T10:48:57.944Z,86272
2016-03-26T10:49:57.947Z,89408
2016-03-26T10:50:57.933Z,89472
2016-03-26T10:51:57.937Z,91488
2016-03-26T10:52:57.955Z,91712
2016-03-26T10:53:57.926Z,91680
2016-03-26T10:54:57.960Z,89920
2016-03-26T10:55:57.931Z,89568
2016-03-26T10:56:57.919Z,90400
2016-03-26T10:57:57.937Z,90720
2016-03-26T10:58:57.939Z,91264
2016-03-26T10:59:57.927Z,93184
2016-03-26T11:00:57.929Z,82496
2016-03-26T11:01:57.916Z,87040
2016-03-26T11:02:57.935Z,88672
2016-03-26T11:03:57.921Z,87232
2016-03-26T11:04:57.924Z,88192
2016-03-26T11:05:57.912Z,89472
2016-03-26T11:06:57.930Z,88288
2016-03-26T11:07:57.901Z,85632
2016-03-26T11:08:57.904Z,82944
2016-03-26T11:09:57.923Z,82336
2016-03-26T11:10:57.910Z,82304
2016-03-26T11:11:57.912Z,83616
2016-03-26T11:12:57.915Z,83840
2016-03-26T11:13:57.979Z,82528
2016-03-26T11:14:57.920Z,81056
2016-03-26T11:15:57.907Z,80000
2016-03-26T11:16:57.910Z,77792
2016-03-26T11:17:57.912Z,78368
2016-03-26T11:18:57.900Z,79264
2016-03-26T11:19:57.918Z,79296
2016-03-26T11:20:57.905Z,79584
2016-03-26T11:21:57.908Z,80608
2016-03-26T11:22:57.926Z,81120
2016-03-26T11:23:57.913Z,83008
2016-03-26T11:24:57.900Z,84064
2016-03-26T11:25:57.903Z,84384
2016-03-26T11:26:57.905Z,84288
2016-03-26T11:27:57.908Z,82272
2016-03-26T11:28:57.911Z,83104
2016-03-26T11:29:57.914Z,84512
2016-03-26T11:30:57.900Z,82400
2016-03-26T11:31:57.903Z,82464
2016-03-26T11:32:57.890Z,83040
2016-03-26T11:33:57.893Z,81952
2016-03-26T11:34:57.896Z,80704
2016-03-26T11:35:57.899Z,79648
2016-03-26T11:36:57.901Z,76416
2016-03-26T11:37:57.919Z,78176
2016-03-26T11:38:57.890Z,71648
2016-03-26T11:39:57.894Z,73920
2016-03-26T11:40:57.896Z,74656
2016-03-26T11:41:57.899Z,72864
2016-03-26T11:42:57.901Z,69856
2016-03-26T11:43:57.732Z,67424
2016-03-26T11:44:57.906Z,68448
2016-03-26T11:45:57.910Z,71328
2016-03-26T11:46:57.897Z,72608
2016-03-26T11:47:57.900Z,75072
2016-03-26T11:48:57.902Z,78560
2016-03-26T11:49:57.906Z,80064
2016-03-26T11:50:57.892Z,82400
2016-03-26T11:51:57.895Z,83072
2016-03-26T11:52:57.897Z,85120
2016-03-26T11:53:57.900Z,84640
2016-03-26T11:54:57.886Z,84736
2016-03-26T11:55:57.890Z,80704
2016-03-26T11:56:57.892Z,78976
2016-03-26T11:57:57.895Z,78496
2016-03-26T11:58:57.897Z,82400
2016-03-26T11:59:57.901Z,84320
2016-03-26T12:00:57.888Z,81696
2016-03-26T12:01:57.891Z,83552
2016-03-26T12:02:57.893Z,80224
2016-03-26T12:03:57.943Z,76480
2016-03-26T12:04:57.898Z,81664
2016-03-26T12:05:57.901Z,85216
2016-03-26T12:06:57.732Z,85312
2016-03-26T12:07:57.891Z,83328
2016-03-26T12:08:57.893Z,79392
2016-03-26T12:09:57.880Z,78016
2016-03-26T12:10:57.899Z,79808
2016-03-26T12:11:57.902Z,83264
2016-03-26T12:12:57.888Z,83808
2016-03-26T12:13:57.890Z,86368
2016-03-26T12:14:57.878Z,83328
2016-03-26T12:15:57.896Z,84064
2016-03-26T12:16:57.884Z,81920
2016-03-26T12:17:57.887Z,84416
2016-03-26T12:18:57.889Z,87520
2016-03-26T12:19:57.892Z,88448
2016-03-26T12:20:57.895Z,87296
2016-03-26T12:21:57.882Z,84896
2016-03-26T12:22:57.884Z,81696
2016-03-26T12:23:57.887Z,82944
2016-03-26T12:24:57.889Z,85248
2016-03-26T12:25:57.877Z,88288
2016-03-26T12:26:57.894Z,89952
2016-03-26T12:27:57.883Z,88832
2016-03-26T12:28:57.885Z,86080
2016-03-26T12:29:57.888Z,85056
2016-03-26T12:30:57.874Z,84352
2016-03-26T12:31:57.878Z,85152
2016-03-26T12:32:57.879Z,84864
2016-03-26T12:33:57.883Z,87872
2016-03-26T12:34:57.885Z,88224
2016-03-26T12:35:57.872Z,87392
2016-03-26T12:36:57.874Z,85984
2016-03-26T12:37:57.878Z,83680
2016-03-26T12:38:57.880Z,82848
2016-03-26T12:39:57.868Z,80800
2016-03-26T12:40:57.870Z,81536
2016-03-26T12:41:57.873Z,82752
2016-03-26T12:42:57.876Z,82624
2016-03-26T12:43:57.863Z,82720
2016-03-26T12:44:57.865Z,83968
2016-03-26T12:45:57.868Z,83072
2016-03-26T12:46:57.871Z,81696
2016-03-26T12:47:57.873Z,79456
2016-03-26T12:48:57.876Z,77952
2016-03-26T12:49:57.879Z,75552
2016-03-26T12:50:57.881Z,78368
2016-03-26T12:51:57.884Z,83104
2016-03-26T12:52:57.871Z,86976
2016-03-26T12:53:57.873Z,86464
2016-03-26T12:54:57.861Z,80416
2016-03-26T12:55:57.708Z,76288
2016-03-26T12:56:57.866Z,74592
2016-03-26T12:57:57.900Z,75296
2016-03-26T12:58:57.856Z,75520
2016-03-26T12:59:57.859Z,76800
2016-03-26T13:00:57.862Z,75520
2016-03-26T13:01:57.849Z,73984
2016-03-26T13:02:57.851Z,73216
2016-03-26T13:03:57.947Z,77408
2016-03-26T13:04:57.872Z,79136
2016-03-26T13:05:57.860Z,80192
2016-03-26T13:06:57.863Z,78944
2016-03-26T13:07:57.865Z,76992
2016-03-26T13:08:57.102Z,75584
2016-03-26T13:09:57.854Z,76192
2016-03-26T13:10:57.858Z,75872
2016-03-26T13:11:57.859Z,75744
2016-03-26T13:12:57.863Z,73824
2016-03-26T13:13:57.849Z,72192
2016-03-26T13:14:57.837Z,70560
2016-03-26T13:15:57.839Z,70016
2016-03-26T13:16:57.826Z,69856
2016-03-26T13:17:57.829Z,72544
2016-03-26T13:18:57.832Z,72320
2016-03-26T13:19:57.834Z,72320
2016-03-26T13:20:57.821Z,70400
2016-03-26T13:21:57.824Z,71136
2016-03-26T13:22:57.826Z,71328
2016-03-26T13:23:57.814Z,73856
2016-03-26T13:24:57.817Z,74944
2016-03-26T13:25:57.819Z,73600
2016-03-26T13:26:57.822Z,74368
2016-03-26T13:27:57.825Z,75840
2016-03-26T13:28:57.828Z,76128
2016-03-26T13:29:57.814Z,75488
2016-03-26T13:30:57.817Z,73824
2016-03-26T13:31:57.820Z,71552
2016-03-26T13:32:57.822Z,69728
2016-03-26T13:33:57.810Z,69792
2016-03-26T13:34:57.812Z,72544